createdAt,value
2017-04-28T00:00:12.418Z,19.56
2017-04-28T00:01:13.848Z,19.57
2017-04-28T00:02:11.920Z,19.56
2017-04-28T00:03:12.483Z,19.57
2017-04-28T00:04:12.840Z,19.56
2017-04-28T00:05:12.599Z,19.61
2017-04-28T00:06:12.255Z,19.56
2017-04-28T00:07:12.468Z,19.55
2017-04-28T00:08:13.675Z,19.57
2017-04-28T00:09:11.827Z,19.55
2017-04-28T00:10:13.758Z,19.55
2017-04-28T00:11:12.034Z,19.56
2017-04-28T00:12:13.315Z,19.56
2017-04-28T00:13:12.823Z,19.58
2017-04-28T00:14:14.591Z,20.08
2017-04-28T00:15:13.960Z,19.76
2017-04-28T00:16:15.207Z,19.62
2017-04-28T00:17:13.602Z,19.59
2017-04-28T00:18:11.587Z,19.57
2017-04-28T00:19:11.602Z,19.56
2017-04-28T00:20:12.278Z,19.55
2017-04-28T00:21:12.235Z,19.56
2017-04-28T00:22:12.534Z,19.56
2017-04-28T00:23:12.605Z,19.56
2017-04-28T00:24:12.349Z,19.57
2017-04-28T00:25:13.819Z,19.56
2017-04-28T00:26:10.730Z,19.54
2017-04-28T00:27:14.211Z,20.08
2017-04-28T00:28:12.918Z,20.13
2017-04-28T00:29:13.198Z,20.16
2017-04-28T00:30:12.645Z,20.17
2017-04-28T00:31:12.538Z,19.65
2017-04-28T00:32:12.843Z,19.60
2017-04-28T00:33:12.737Z,19.58
2017-04-28T00:34:09.971Z,19.56
2017-04-28T00:35:12.241Z,19.56
2017-04-28T00:36:13.112Z,19.55
2017-04-28T00:37:12.835Z,19.60
2017-04-28T00:38:11.870Z,19.55
2017-04-28T00:39:12.435Z,19.62
2017-04-28T00:40:10.106Z,20.08
2017-04-28T00:41:13.736Z,20.12
2017-04-28T00:42:13.527Z,19.80
2017-04-28T00:43:13.366Z,19.63
2017-04-28T00:44:12.436Z,19.58
2017-04-28T00:45:13.442Z,19.58
2017-04-28T00:46:12.617Z,19.55
2017-04-28T00:47:12.648Z,19.55
2017-04-28T00:48:12.477Z,19.54
2017-04-28T00:49:13.501Z,19.57
2017-04-28T00:50:13.301Z,19.55
2017-04-28T00:51:13.785Z,19.53
2017-04-28T00:52:09.510Z,19.53
2017-04-28T00:53:15.370Z,19.53
2017-04-28T00:54:13.220Z,19.52
2017-04-28T00:55:13.043Z,19.54
2017-04-28T00:56:12.451Z,19.54
2017-04-28T00:57:14.378Z,19.54
2017-04-28T00:58:17.079Z,19.54
2017-04-28T00:59:12.545Z,19.61
2017-04-28T01:00:13.059Z,19.53
2017-04-28T01:01:12.635Z,19.58
2017-04-28T01:02:15.430Z,19.54
2017-04-28T01:03:14.009Z,19.54
2017-04-28T01:04:12.637Z,19.57
2017-04-28T01:05:12.312Z,19.54
2017-04-28T01:06:14.519Z,19.54
2017-04-28T01:07:13.688Z,19.56
2017-04-28T01:08:12.479Z,19.54
2017-04-28T01:09:11.178Z,19.53
2017-04-28T01:10:13.027Z,19.54
2017-04-28T01:11:12.255Z,19.54
2017-04-28T01:12:13.186Z,19.54
2017-04-28T01:13:11.042Z,19.53
2017-04-28T01:14:13.176Z,20.07
2017-04-28T01:15:14.296Z,19.58
2017-04-28T01:16:09.558Z,19.56
2017-04-28T01:17:13.264Z,19.55
2017-04-28T01:18:13.038Z,19.54
2017-04-28T01:19:13.620Z,19.54
2017-04-28T01:20:11.766Z,19.54
2017-04-28T01:21:12.146Z,19.53
2017-04-28T01:22:12.669Z,19.53
2017-04-28T01:23:13.116Z,19.53
2017-04-28T01:24:12.636Z,19.56
2017-04-28T01:25:13.116Z,19.54
2017-04-28T01:26:12.330Z,20.06
2017-04-28T01:27:14.582Z,20.11
2017-04-28T01:28:12.474Z,20.13
2017-04-28T01:29:13.514Z,20.14
2017-04-28T01:30:12.418Z,19.81
2017-04-28T01:31:14.206Z,19.62
2017-04-28T01:32:12.238Z,19.58
2017-04-28T01:33:10.805Z,19.55
2017-04-28T01:34:12.893Z,19.55
2017-04-28T01:35:12.252Z,19.54
2017-04-28T01:36:12.817Z,19.58
2017-04-28T01:37:12.835Z,19.55
2017-04-28T01:38:12.009Z,19.53
2017-04-28T01:39:12.782Z,19.54
2017-04-28T01:40:12.828Z,19.54
2017-04-28T01:41:12.570Z,19.54
2017-04-28T01:42:14.319Z,19.54
2017-04-28T01:43:12.656Z,19.54
2017-04-28T01:44:12.597Z,19.55
2017-04-28T01:45:11.809Z,19.54
2017-04-28T01:46:13.210Z,19.61
2017-04-28T01:47:12.315Z,19.55
2017-04-28T01:48:12.865Z,19.57
2017-04-28T01:49:12.853Z,20.08
2017-04-28T01:50:16.483Z,20.12
2017-04-28T01:51:09.798Z,19.62
2017-04-28T01:52:13.880Z,20.11
2017-04-28T01:53:14.091Z,20.14
2017-04-28T01:54:12.082Z,20.16
2017-04-28T01:55:12.846Z,19.80
2017-04-28T01:56:13.381Z,19.68
2017-04-28T01:57:13.440Z,19.60
2017-04-28T01:58:13.438Z,19.57
2017-04-28T01:59:13.415Z,19.58
2017-04-28T02:00:13.494Z,19.56
2017-04-28T02:01:13.330Z,19.56
2017-04-28T02:02:12.607Z,19.55
2017-04-28T02:03:10.471Z,19.54
2017-04-28T02:04:14.415Z,19.54
2017-04-28T02:05:12.877Z,19.62
2017-04-28T02:06:13.486Z,19.55
2017-04-28T02:07:12.641Z,19.54
2017-04-28T02:08:14.192Z,19.54
2017-04-28T02:09:12.480Z,19.54
2017-04-28T02:10:12.612Z,19.54
2017-04-28T02:11:12.359Z,19.54
2017-04-28T02:12:13.475Z,19.53
2017-04-28T02:13:12.994Z,19.57
2017-04-28T02:14:12.128Z,19.53
2017-04-28T02:15:12.635Z,19.58
2017-04-28T02:16:13.296Z,19.53
2017-04-28T02:17:13.872Z,19.52
2017-04-28T02:18:13.677Z,19.52
2017-04-28T02:19:12.438Z,19.53
2017-04-28T02:20:12.622Z,19.53
2017-04-28T02:21:12.441Z,19.54
2017-04-28T02:22:13.488Z,19.53
2017-04-28T02:23:10.044Z,19.52
2017-04-28T02:24:12.396Z,19.53
2017-04-28T02:25:12.856Z,19.53
2017-04-28T02:26:13.410Z,19.57
2017-04-28T02:27:13.872Z,19.52
2017-04-28T02:28:14.277Z,19.52
2017-04-28T02:29:12.470Z,19.52
2017-04-28T02:30:10.697Z,19.51
2017-04-28T02:31:11.873Z,19.51
2017-04-28T02:32:12.463Z,19.52
2017-04-28T02:33:12.747Z,19.51
2017-04-28T02:34:13.058Z,19.51
2017-04-28T02:35:13.227Z,19.51
2017-04-28T02:36:13.301Z,19.51
2017-04-28T02:37:14.188Z,19.51
2017-04-28T02:38:15.556Z,19.51
2017-04-28T02:39:12.831Z,19.52
2017-04-28T02:40:14.253Z,19.52
2017-04-28T02:41:13.409Z,19.51
2017-04-28T02:42:13.070Z,19.50
2017-04-28T02:43:14.545Z,19.51
2017-04-28T02:44:12.681Z,19.51
2017-04-28T02:45:11.789Z,19.51
2017-04-28T02:46:12.011Z,19.51
2017-04-28T02:47:12.316Z,19.51
2017-04-28T02:48:12.749Z,19.51
2017-04-28T02:49:13.788Z,19.50
2017-04-28T02:50:12.674Z,19.51
2017-04-28T02:51:11.754Z,19.51
2017-04-28T02:52:11.896Z,19.51
2017-04-28T02:53:09.516Z,19.50
2017-04-28T02:54:12.821Z,19.51
2017-04-28T02:55:12.810Z,19.51
2017-04-28T02:56:11.798Z,19.51
2017-04-28T02:57:13.740Z,19.50
2017-04-28T02:58:09.871Z,19.51
2017-04-28T02:59:12.663Z,19.55
2017-04-28T03:00:11.775Z,19.51
2017-04-28T03:01:12.172Z,19.50
2017-04-28T03:02:13.967Z,19.50
2017-04-28T03:03:14.034Z,19.51
2017-04-28T03:04:12.166Z,19.51
2017-04-28T03:05:12.303Z,19.51
2017-04-28T03:06:14.033Z,19.51
2017-04-28T03:07:12.683Z,19.58
2017-04-28T03:08:12.010Z,20.03
2017-04-28T03:09:13.842Z,20.09
2017-04-28T03:10:12.845Z,20.10
2017-04-28T03:11:12.693Z,20.12
2017-04-28T03:12:12.926Z,20.14
2017-04-28T03:13:12.614Z,20.15
2017-04-28T03:14:12.449Z,20.14
2017-04-28T03:15:13.215Z,19.85
2017-04-28T03:16:13.480Z,19.62
2017-04-28T03:17:12.905Z,19.63
2017-04-28T03:18:11.999Z,19.55
2017-04-28T03:19:12.739Z,19.57
2017-04-28T03:20:11.979Z,19.54
2017-04-28T03:21:13.792Z,19.50
2017-04-28T03:22:13.697Z,19.53
2017-04-28T03:23:10.991Z,19.52
2017-04-28T03:24:13.867Z,19.52
2017-04-28T03:25:12.799Z,19.52
2017-04-28T03:26:12.036Z,19.52
2017-04-28T03:27:14.334Z,19.51
2017-04-28T03:28:12.386Z,19.52
2017-04-28T03:29:12.681Z,19.55
2017-04-28T03:30:10.691Z,19.51
2017-04-28T03:31:12.652Z,20.05
2017-04-28T03:32:10.753Z,20.09
2017-04-28T03:33:10.912Z,20.11
2017-04-28T03:34:10.971Z,20.11
2017-04-28T03:35:13.979Z,19.60
2017-04-28T03:36:12.956Z,19.56
2017-04-28T03:37:12.773Z,19.54
2017-04-28T03:38:11.947Z,19.53
2017-04-28T03:39:12.816Z,19.57
2017-04-28T03:40:12.792Z,19.53
2017-04-28T03:41:12.240Z,19.57
2017-04-28T03:42:13.458Z,19.52
2017-04-28T03:43:13.117Z,19.59
2017-04-28T03:44:13.088Z,19.52
2017-04-28T03:45:12.428Z,19.52
2017-04-28T03:46:13.172Z,19.51
2017-04-28T03:47:13.729Z,19.51
2017-04-28T03:48:11.999Z,19.51
2017-04-28T03:49:12.003Z,19.51
2017-04-28T03:50:12.218Z,19.51
2017-04-28T03:51:12.848Z,19.51
2017-04-28T03:52:11.767Z,19.51
2017-04-28T03:53:12.007Z,19.51
2017-04-28T03:54:12.854Z,19.51
2017-04-28T03:55:12.728Z,19.51
2017-04-28T03:56:11.763Z,19.51
2017-04-28T03:57:13.552Z,19.52
2017-04-28T03:58:12.780Z,19.52
2017-04-28T03:59:11.656Z,19.52
2017-04-28T04:00:11.794Z,19.53
2017-04-28T04:01:10.640Z,19.51
2017-04-28T04:02:12.834Z,19.53
2017-04-28T04:03:12.038Z,19.52
2017-04-28T04:04:12.242Z,19.53
2017-04-28T04:05:12.598Z,19.53
2017-04-28T04:06:11.648Z,19.52
2017-04-28T04:07:13.087Z,19.52
2017-04-28T04:08:12.224Z,19.52
2017-04-28T04:09:13.002Z,19.52
2017-04-28T04:10:12.102Z,19.52
2017-04-28T04:11:11.185Z,19.51
2017-04-28T04:12:13.729Z,20.06
2017-04-28T04:13:12.472Z,20.10
2017-04-28T04:14:12.652Z,19.59
2017-04-28T04:15:09.282Z,19.55
2017-04-28T04:16:10.999Z,19.53
2017-04-28T04:17:13.557Z,19.58
2017-04-28T04:18:11.513Z,19.52
2017-04-28T04:19:10.386Z,19.52
2017-04-28T04:20:12.614Z,19.52
2017-04-28T04:21:11.996Z,19.59
2017-04-28T04:22:13.735Z,19.53
2017-04-28T04:23:12.409Z,19.52
2017-04-28T04:24:12.607Z,19.52
2017-04-28T04:25:16.865Z,19.54
2017-04-28T04:26:12.237Z,19.53
2017-04-28T04:27:14.060Z,19.52
2017-04-28T04:28:13.653Z,19.53
2017-04-28T04:29:12.460Z,19.52
2017-04-28T04:30:13.102Z,19.56
2017-04-28T04:31:12.465Z,19.52
2017-04-28T04:32:13.110Z,19.61
2017-04-28T04:33:12.659Z,19.58
2017-04-28T04:34:12.177Z,19.56
2017-04-28T04:35:12.262Z,19.53
2017-04-28T04:36:13.108Z,19.54
2017-04-28T04:37:13.272Z,19.52
2017-04-28T04:38:13.870Z,19.52
2017-04-28T04:39:13.161Z,19.53
2017-04-28T04:40:13.387Z,19.52
2017-04-28T04:41:12.883Z,19.58
2017-04-28T04:42:13.179Z,19.53
2017-04-28T04:43:12.254Z,19.53
2017-04-28T04:44:12.141Z,19.53
2017-04-28T04:45:13.957Z,19.52
2017-04-28T04:46:11.979Z,19.53
2017-04-28T04:47:12.292Z,19.53
2017-04-28T04:48:12.404Z,19.54
2017-04-28T04:49:13.332Z,19.53
2017-04-28T04:50:13.236Z,19.52
2017-04-28T04:51:12.921Z,19.52
2017-04-28T04:52:12.589Z,19.56
2017-04-28T04:53:11.599Z,19.53
2017-04-28T04:54:14.856Z,19.52
2017-04-28T04:55:12.765Z,19.53
2017-04-28T04:56:11.831Z,19.52
2017-04-28T04:57:13.651Z,19.52
2017-04-28T04:58:11.860Z,19.51
2017-04-28T04:59:13.662Z,19.51
2017-04-28T05:00:11.158Z,19.51
2017-04-28T05:01:11.590Z,19.51
2017-04-28T05:02:11.174Z,19.50
2017-04-28T05:03:12.596Z,19.51
2017-04-28T05:04:12.891Z,19.55
2017-04-28T05:05:12.155Z,19.50
2017-04-28T05:06:13.074Z,19.50
2017-04-28T05:07:12.027Z,19.50
2017-04-28T05:08:12.246Z,19.50
2017-04-28T05:09:13.003Z,19.49
2017-04-28T05:10:12.595Z,19.54
2017-04-28T05:11:11.271Z,19.48
2017-04-28T05:12:12.791Z,20.01
2017-04-28T05:13:11.918Z,20.07
2017-04-28T05:14:13.158Z,20.09
2017-04-28T05:15:14.066Z,20.11
2017-04-28T05:16:13.954Z,19.58
2017-04-28T05:17:12.447Z,19.58
2017-04-28T05:18:12.623Z,19.52
2017-04-28T05:19:12.243Z,19.51
2017-04-28T05:20:12.840Z,19.74
2017-04-28T05:21:12.579Z,19.56
2017-04-28T05:22:12.262Z,20.03
2017-04-28T05:23:12.239Z,19.74
2017-04-28T05:24:10.405Z,19.56
2017-04-28T05:25:12.497Z,19.52
2017-04-28T05:26:13.284Z,19.51
2017-04-28T05:27:13.975Z,19.57
2017-04-28T05:28:12.509Z,19.54
2017-04-28T05:29:14.955Z,19.49
2017-04-28T05:30:12.691Z,19.48
2017-04-28T05:31:11.758Z,19.48
2017-04-28T05:32:11.888Z,19.48
2017-04-28T05:33:12.607Z,19.48
2017-04-28T05:34:11.588Z,19.47
2017-04-28T05:35:12.599Z,20.00
2017-04-28T05:36:11.786Z,19.53
2017-04-28T05:37:12.598Z,19.49
2017-04-28T05:38:12.172Z,19.53
2017-04-28T05:39:12.178Z,19.48
2017-04-28T05:40:12.252Z,19.48
2017-04-28T05:41:12.700Z,19.47
2017-04-28T05:42:13.430Z,19.47
2017-04-28T05:43:13.365Z,19.47
2017-04-28T05:44:12.997Z,19.47
2017-04-28T05:45:12.034Z,19.47
2017-04-28T05:46:12.899Z,19.47
2017-04-28T05:47:12.708Z,19.47
2017-04-28T05:48:09.083Z,19.46
2017-04-28T05:49:12.468Z,19.47
2017-04-28T05:50:12.463Z,19.47
2017-04-28T05:51:13.169Z,19.46
2017-04-28T05:52:13.115Z,19.46
2017-04-28T05:53:12.232Z,19.45
2017-04-28T05:54:13.873Z,19.45
2017-04-28T05:55:12.578Z,19.45
2017-04-28T05:56:12.258Z,19.48
2017-04-28T05:57:09.627Z,19.44
2017-04-28T05:58:13.028Z,19.45
2017-04-28T05:59:12.579Z,19.45
2017-04-28T06:00:12.406Z,19.44
2017-04-28T06:01:12.398Z,19.45
2017-04-28T06:02:13.068Z,19.47
2017-04-28T06:03:10.862Z,19.44
2017-04-28T06:04:12.837Z,19.46
2017-04-28T06:05:13.140Z,19.46
2017-04-28T06:06:12.760Z,19.44
2017-04-28T06:07:13.684Z,19.45
2017-04-28T06:08:13.773Z,19.44
2017-04-28T06:09:10.468Z,19.43
2017-04-28T06:10:13.490Z,19.59
2017-04-28T06:11:13.027Z,19.52
2017-04-28T06:12:14.451Z,19.45
2017-04-28T06:13:11.730Z,19.44
2017-04-28T06:14:13.825Z,19.43
2017-04-28T06:15:12.438Z,19.43
2017-04-28T06:16:10.751Z,19.43
2017-04-28T06:17:12.408Z,19.42
2017-04-28T06:18:13.435Z,19.44
2017-04-28T06:19:13.377Z,19.43
2017-04-28T06:20:13.229Z,19.50
2017-04-28T06:21:11.198Z,19.42
2017-04-28T06:22:13.964Z,19.96
2017-04-28T06:23:11.023Z,19.99
2017-04-28T06:24:13.091Z,19.68
2017-04-28T06:25:12.517Z,19.50
2017-04-28T06:26:11.400Z,19.45
2017-04-28T06:27:13.723Z,19.96
2017-04-28T06:28:10.256Z,20.00
2017-04-28T06:29:12.840Z,19.49
2017-04-28T06:30:11.979Z,19.46
2017-04-28T06:31:12.919Z,19.48
2017-04-28T06:32:11.912Z,19.46
2017-04-28T06:33:12.422Z,19.52
2017-04-28T06:34:12.866Z,19.51
2017-04-28T06:35:09.957Z,19.45
2017-04-28T06:36:11.088Z,19.43
2017-04-28T06:37:12.365Z,19.98
2017-04-28T06:38:12.443Z,20.01
2017-04-28T06:39:13.140Z,20.05
2017-04-28T06:40:11.096Z,20.06
2017-04-28T06:41:15.023Z,20.06
2017-04-28T06:42:13.222Z,20.07
2017-04-28T06:43:14.072Z,20.07
2017-04-28T06:44:12.210Z,20.08
2017-04-28T06:45:12.403Z,20.09
2017-04-28T06:46:12.598Z,20.08
2017-04-28T06:47:13.387Z,19.71
2017-04-28T06:48:14.987Z,19.53
2017-04-28T06:49:12.590Z,19.49
2017-04-28T06:50:11.601Z,19.47
2017-04-28T06:51:12.459Z,19.45
2017-04-28T06:52:14.118Z,19.45
2017-04-28T06:53:12.917Z,19.44
2017-04-28T06:54:12.495Z,19.50
2017-04-28T06:55:12.845Z,19.44
2017-04-28T06:56:12.142Z,19.43
2017-04-28T06:57:13.318Z,19.43
2017-04-28T06:58:12.411Z,19.43
2017-04-28T06:59:13.598Z,19.44
2017-04-28T07:00:13.406Z,19.43
2017-04-28T07:01:12.561Z,19.44
2017-04-28T07:02:11.729Z,19.43
2017-04-28T07:03:11.893Z,19.44
2017-04-28T07:04:12.617Z,19.47
2017-04-28T07:05:12.424Z,19.44
2017-04-28T07:06:13.142Z,19.46
2017-04-28T07:07:12.285Z,19.44
2017-04-28T07:08:13.091Z,19.44
2017-04-28T07:09:12.244Z,19.43
2017-04-28T07:10:12.416Z,19.43
2017-04-28T07:11:13.926Z,19.42
2017-04-28T07:12:13.686Z,19.43
2017-04-28T07:13:09.719Z,19.42
2017-04-28T07:14:12.915Z,19.43
2017-04-28T07:15:10.609Z,19.42
2017-04-28T07:16:11.846Z,19.43
2017-04-28T07:17:12.027Z,19.42
2017-04-28T07:18:12.396Z,19.42
2017-04-28T07:19:12.641Z,19.42
2017-04-28T07:20:12.412Z,19.42
2017-04-28T07:21:11.341Z,19.41
2017-04-28T07:22:12.426Z,19.42
2017-04-28T07:23:13.529Z,19.42
2017-04-28T07:24:12.787Z,19.42
2017-04-28T07:25:12.242Z,19.47
2017-04-28T07:26:10.994Z,19.40
2017-04-28T07:27:12.885Z,19.42
2017-04-28T07:28:12.717Z,19.42
2017-04-28T07:29:13.545Z,19.43
2017-04-28T07:30:12.935Z,19.42
2017-04-28T07:31:12.814Z,19.42
2017-04-28T07:32:12.255Z,19.43
2017-04-28T07:33:13.014Z,19.42
2017-04-28T07:34:10.027Z,19.42
2017-04-28T07:35:11.042Z,19.41
2017-04-28T07:36:13.493Z,19.42
2017-04-28T07:37:13.149Z,19.49
2017-04-28T07:38:14.125Z,19.42
2017-04-28T07:39:12.379Z,19.41
2017-04-28T07:40:13.465Z,19.39
2017-04-28T07:41:12.662Z,19.39
2017-04-28T07:42:13.415Z,19.38
2017-04-28T07:43:13.486Z,19.44
2017-04-28T07:44:13.095Z,19.38
2017-04-28T07:45:12.239Z,19.38
2017-04-28T07:46:10.875Z,19.38
2017-04-28T07:47:12.979Z,19.54
2017-04-28T07:48:12.754Z,19.43
2017-04-28T07:49:11.904Z,19.39
2017-04-28T07:50:12.642Z,19.39
2017-04-28T07:51:12.417Z,19.42
2017-04-28T07:52:13.300Z,19.37
2017-04-28T07:53:14.982Z,19.37
2017-04-28T07:54:12.068Z,19.36
2017-04-28T07:55:12.227Z,19.36
2017-04-28T07:56:13.214Z,19.36
2017-04-28T07:57:13.282Z,19.35
2017-04-28T07:58:12.844Z,19.36
2017-04-28T07:59:10.621Z,19.36
2017-04-28T08:00:12.582Z,19.37
2017-04-28T08:01:13.497Z,19.37
2017-04-28T08:02:13.515Z,19.38
2017-04-28T08:03:12.721Z,19.37
2017-04-28T08:04:13.225Z,19.38
2017-04-28T08:05:13.406Z,19.38
2017-04-28T08:06:13.316Z,19.37
2017-04-28T08:07:13.104Z,19.36
2017-04-28T08:08:13.055Z,19.36
2017-04-28T08:09:12.775Z,19.37
2017-04-28T08:10:13.469Z,19.37
2017-04-28T08:11:13.404Z,19.37
2017-04-28T08:12:13.493Z,19.37
2017-04-28T08:13:12.849Z,19.38
2017-04-28T08:14:11.754Z,19.38
2017-04-28T08:15:11.880Z,19.39
2017-04-28T08:16:12.526Z,19.39
2017-04-28T08:17:13.303Z,19.39
2017-04-28T08:18:12.677Z,19.39
2017-04-28T08:19:12.313Z,19.39
2017-04-28T08:20:14.359Z,19.39
2017-04-28T08:21:12.910Z,19.38
2017-04-28T08:22:14.904Z,19.39
2017-04-28T08:23:12.507Z,19.40
2017-04-28T08:24:13.691Z,19.46
2017-04-28T08:25:13.254Z,19.37
2017-04-28T08:26:12.430Z,19.36
2017-04-28T08:27:13.512Z,19.36
2017-04-28T08:28:13.221Z,19.36
2017-04-28T08:29:12.997Z,19.43
2017-04-28T08:30:12.161Z,19.36
2017-04-28T08:31:12.164Z,19.35
2017-04-28T08:32:10.894Z,19.35
2017-04-28T08:33:11.807Z,19.37
2017-04-28T08:34:12.714Z,19.40
2017-04-28T08:35:12.704Z,19.38
2017-04-28T08:36:11.775Z,19.38
2017-04-28T08:37:12.649Z,19.37
2017-04-28T08:38:11.819Z,19.37
2017-04-28T08:39:11.967Z,19.38
2017-04-28T08:40:12.225Z,19.38
2017-04-28T08:41:13.122Z,19.38
2017-04-28T08:42:13.353Z,19.39
2017-04-28T08:43:11.016Z,19.39
2017-04-28T08:44:12.479Z,19.39
2017-04-28T08:45:12.659Z,19.41
2017-04-28T08:46:13.888Z,19.40
2017-04-28T08:47:12.002Z,19.40
2017-04-28T08:48:12.290Z,19.41
2017-04-28T08:49:12.986Z,19.42
2017-04-28T08:50:12.660Z,19.45
2017-04-28T08:51:12.245Z,19.42
2017-04-28T08:52:12.765Z,19.46
2017-04-28T08:53:11.709Z,19.42
2017-04-28T08:54:12.082Z,19.46
2017-04-28T08:55:12.749Z,19.46
2017-04-28T08:56:13.758Z,19.42
2017-04-28T08:57:13.758Z,19.42
2017-04-28T08:58:12.702Z,19.44
2017-04-28T08:59:12.898Z,19.42
2017-04-28T09:00:12.039Z,19.41
2017-04-28T09:01:12.174Z,19.41
2017-04-28T09:02:12.652Z,19.45
2017-04-28T09:03:12.171Z,19.44
2017-04-28T09:04:12.697Z,19.43
2017-04-28T09:05:12.493Z,19.41
2017-04-28T09:06:11.525Z,19.40
2017-04-28T09:07:12.751Z,19.94
2017-04-28T09:08:12.050Z,19.99
2017-04-28T09:09:12.646Z,20.01
2017-04-28T09:10:11.695Z,20.03
2017-04-28T09:11:11.799Z,20.03
2017-04-28T09:12:13.679Z,20.02
2017-04-28T09:13:12.166Z,20.03
2017-04-28T09:14:13.177Z,20.04
2017-04-28T09:15:13.709Z,20.02
2017-04-28T09:16:12.344Z,20.04
2017-04-28T09:17:14.855Z,20.04
2017-04-28T09:18:12.489Z,20.04
2017-04-28T09:19:13.326Z,20.04
2017-04-28T09:20:12.681Z,19.51
2017-04-28T09:21:11.818Z,19.45
2017-04-28T09:22:10.471Z,19.43
2017-04-28T09:23:13.858Z,19.41
2017-04-28T09:24:11.758Z,19.41
2017-04-28T09:25:12.698Z,19.40
2017-04-28T09:26:12.021Z,19.39
2017-04-28T09:27:13.303Z,19.39
2017-04-28T09:28:13.199Z,19.39
2017-04-28T09:29:10.897Z,19.38
2017-04-28T09:30:13.104Z,19.41
2017-04-28T09:31:12.269Z,19.38
2017-04-28T09:32:12.921Z,19.37
2017-04-28T09:33:12.903Z,19.38
2017-04-28T09:34:11.992Z,19.38
2017-04-28T09:35:12.182Z,19.38
2017-04-28T09:36:12.854Z,19.37
2017-04-28T09:37:11.989Z,19.37
2017-04-28T09:38:12.198Z,19.37
2017-04-28T09:39:13.984Z,19.37
2017-04-28T09:40:12.035Z,19.38
2017-04-28T09:41:13.181Z,19.37
2017-04-28T09:42:14.084Z,19.38
2017-04-28T09:43:12.888Z,19.37
2017-04-28T09:44:12.420Z,19.41
2017-04-28T09:45:11.170Z,19.37
2017-04-28T09:46:12.370Z,19.37
2017-04-28T09:47:14.160Z,19.37
2017-04-28T09:48:12.294Z,19.38
2017-04-28T09:49:13.133Z,19.38
2017-04-28T09:50:14.292Z,19.38
2017-04-28T09:51:12.339Z,19.38
2017-04-28T09:52:14.368Z,19.38
2017-04-28T09:53:13.668Z,19.38
2017-04-28T09:54:12.300Z,19.40
2017-04-28T09:55:12.433Z,19.38
2017-04-28T09:56:12.843Z,19.45
2017-04-28T09:57:14.149Z,19.38
2017-04-28T09:58:13.102Z,19.39
2017-04-28T09:59:13.917Z,19.38
2017-04-28T10:00:14.111Z,19.39
2017-04-28T10:01:10.286Z,19.38
2017-04-28T10:02:13.775Z,19.38
2017-04-28T10:03:12.008Z,19.38
2017-04-28T10:04:10.804Z,19.38
2017-04-28T10:05:12.822Z,19.92
2017-04-28T10:06:13.803Z,19.97
2017-04-28T10:07:11.759Z,20.00
2017-04-28T10:08:11.914Z,20.00
2017-04-28T10:09:10.502Z,20.02
2017-04-28T10:10:12.045Z,20.02
2017-04-28T10:11:12.250Z,20.02
2017-04-28T10:12:10.919Z,20.02
2017-04-28T10:13:12.034Z,20.03
2017-04-28T10:14:13.080Z,20.03
2017-04-28T10:15:12.039Z,20.03
2017-04-28T10:16:13.918Z,20.03
2017-04-28T10:17:12.183Z,20.03
2017-04-28T10:18:12.407Z,20.04
2017-04-28T10:19:10.210Z,20.03
2017-04-28T10:20:12.610Z,20.03
2017-04-28T10:21:11.738Z,19.51
2017-04-28T10:22:11.851Z,19.46
2017-04-28T10:23:13.138Z,19.43
2017-04-28T10:24:13.761Z,19.43
2017-04-28T10:25:12.586Z,19.42
2017-04-28T10:26:12.703Z,19.41
2017-04-28T10:27:12.654Z,19.40
2017-04-28T10:28:12.209Z,19.46
2017-04-28T10:29:12.651Z,19.44
2017-04-28T10:30:12.034Z,19.46
2017-04-28T10:31:12.221Z,19.40
2017-04-28T10:32:12.839Z,19.47
2017-04-28T10:33:12.147Z,19.40
2017-04-28T10:34:12.796Z,19.44
2017-04-28T10:35:13.464Z,19.95
2017-04-28T10:36:12.619Z,19.98
2017-04-28T10:37:12.016Z,19.70
2017-04-28T10:38:12.940Z,19.48
2017-04-28T10:39:12.390Z,19.51
2017-04-28T10:40:10.906Z,19.42
2017-04-28T10:41:14.789Z,19.41
2017-04-28T10:42:10.060Z,19.39
2017-04-28T10:43:13.490Z,19.39
2017-04-28T10:44:12.821Z,19.39
2017-04-28T10:45:13.552Z,19.39
2017-04-28T10:46:12.411Z,19.41
2017-04-28T10:47:13.363Z,19.39
2017-04-28T10:48:12.487Z,19.39
2017-04-28T10:49:13.305Z,19.38
2017-04-28T10:50:10.947Z,19.39
2017-04-28T10:51:12.754Z,19.43
2017-04-28T10:52:12.262Z,19.46
2017-04-28T10:53:12.437Z,19.39
2017-04-28T10:54:12.956Z,19.43
2017-04-28T10:55:14.165Z,19.39
2017-04-28T10:56:11.309Z,19.39
2017-04-28T10:57:13.442Z,19.39
2017-04-28T10:58:13.065Z,19.47
2017-04-28T10:59:12.716Z,19.45
2017-04-28T11:00:12.221Z,19.44
2017-04-28T11:01:14.043Z,19.39
2017-04-28T11:02:12.254Z,19.39
2017-04-28T11:03:12.971Z,19.40
2017-04-28T11:04:12.228Z,19.39
2017-04-28T11:05:12.417Z,19.38
2017-04-28T11:06:13.210Z,19.41
2017-04-28T11:07:12.870Z,19.39
2017-04-28T11:08:12.397Z,19.42
2017-04-28T11:09:13.071Z,19.39
2017-04-28T11:10:12.763Z,19.38
2017-04-28T11:11:12.263Z,19.43
2017-04-28T11:12:14.470Z,19.38
2017-04-28T11:13:12.629Z,19.38
2017-04-28T11:14:13.527Z,19.38
2017-04-28T11:15:12.697Z,19.39
2017-04-28T11:16:10.708Z,19.38
2017-04-28T11:17:14.064Z,19.38
2017-04-28T11:18:13.335Z,19.39
2017-04-28T11:19:13.390Z,19.39
2017-04-28T11:20:15.791Z,19.38
2017-04-28T11:21:15.489Z,19.38
2017-04-28T11:22:13.603Z,19.38
2017-04-28T11:23:11.545Z,19.38
2017-04-28T11:24:13.823Z,19.37
2017-04-28T11:25:13.587Z,19.36
2017-04-28T11:26:14.250Z,19.36
2017-04-28T11:27:13.102Z,19.37
2017-04-28T11:28:13.356Z,19.37
2017-04-28T11:29:12.884Z,19.36
2017-04-28T11:30:14.426Z,19.39
2017-04-28T11:31:11.034Z,19.88
2017-04-28T11:32:13.345Z,19.43
2017-04-28T11:33:12.440Z,19.38
2017-04-28T11:34:12.409Z,19.38
2017-04-28T11:35:15.110Z,19.38
2017-04-28T11:36:12.824Z,19.39
2017-04-28T11:37:10.221Z,19.35
2017-04-28T11:38:12.479Z,19.37
2017-04-28T11:39:12.749Z,19.36
2017-04-28T11:40:12.616Z,19.37
2017-04-28T11:41:12.325Z,19.36
2017-04-28T11:42:13.603Z,19.36
2017-04-28T11:43:13.805Z,19.36
2017-04-28T11:44:12.885Z,19.90
2017-04-28T11:45:13.621Z,19.94
2017-04-28T11:46:12.407Z,19.96
2017-04-28T11:47:13.223Z,19.97
2017-04-28T11:48:12.352Z,19.99
2017-04-28T11:49:12.728Z,19.64
2017-04-28T11:50:12.997Z,19.47
2017-04-28T11:51:09.110Z,19.40
2017-04-28T11:52:14.214Z,19.38
2017-04-28T11:53:12.794Z,19.37
2017-04-28T11:54:11.897Z,19.36
2017-04-28T11:55:12.823Z,19.39
2017-04-28T11:56:14.141Z,19.35
2017-04-28T11:57:14.537Z,19.35
2017-04-28T11:58:11.311Z,19.35
2017-04-28T11:59:12.924Z,19.35
2017-04-28T12:00:12.076Z,19.35
2017-04-28T12:01:12.396Z,19.35
2017-04-28T12:02:14.182Z,19.34
2017-04-28T12:03:12.285Z,19.35
2017-04-28T12:04:13.259Z,19.34
2017-04-28T12:05:12.488Z,19.34
2017-04-28T12:06:14.240Z,19.34
2017-04-28T12:07:10.648Z,19.34
2017-04-28T12:08:10.567Z,19.33
2017-04-28T12:09:11.842Z,19.76
2017-04-28T12:10:12.917Z,19.92
2017-04-28T12:11:13.041Z,19.94
2017-04-28T12:12:14.703Z,19.62
2017-04-28T12:13:11.673Z,19.42
2017-04-28T12:14:13.419Z,19.38
2017-04-28T12:15:13.551Z,19.37
2017-04-28T12:16:11.667Z,19.35
2017-04-28T12:17:10.465Z,19.34
2017-04-28T12:18:10.175Z,19.34
2017-04-28T12:19:12.900Z,19.50
2017-04-28T12:20:12.724Z,19.38
2017-04-28T12:21:12.587Z,19.35
2017-04-28T12:22:12.517Z,19.34
2017-04-28T12:23:12.621Z,19.33
2017-04-28T12:24:11.610Z,19.33
2017-04-28T12:25:12.424Z,19.33
2017-04-28T12:26:13.625Z,19.33
2017-04-28T12:27:14.335Z,19.34
2017-04-28T12:28:12.828Z,19.33
2017-04-28T12:29:12.555Z,19.33
2017-04-28T12:30:12.620Z,19.33
2017-04-28T12:31:12.666Z,19.34
2017-04-28T12:32:12.449Z,19.39
2017-04-28T12:33:13.663Z,19.32
2017-04-28T12:34:11.662Z,19.34
2017-04-28T12:35:12.412Z,19.34
2017-04-28T12:36:12.445Z,19.33
2017-04-28T12:37:13.043Z,19.33
2017-04-28T12:38:12.360Z,19.33
2017-04-28T12:39:13.866Z,19.34
2017-04-28T12:40:13.384Z,19.33
2017-04-28T12:41:12.655Z,19.33
2017-04-28T12:42:12.456Z,19.33
2017-04-28T12:43:10.570Z,19.32
2017-04-28T12:44:12.415Z,19.37
2017-04-28T12:45:13.388Z,19.32
2017-04-28T12:46:12.540Z,19.32
2017-04-28T12:47:13.163Z,19.32
2017-04-28T12:48:12.876Z,19.36
2017-04-28T12:49:13.482Z,19.32
2017-04-28T12:50:11.133Z,19.31
2017-04-28T12:51:13.571Z,19.31
2017-04-28T12:52:13.313Z,19.32